Time;durP1;ratioP1;P1;durP2;ratioP2;P2;SDS_P1;SDS_P2;PMS_P1;PMS_P2;Temp;Humidity;BMP_temperature;BMP_pressure;BME280_temperature;BME280_humidity;BME280_pressure;Samples;Min_cycle;Max_cycle;Signal;HPM_P1;HPM_P2
2023/03/14 00:00:21;;;;;;;;;15.00;12.50;22.80;29.70;;;;;;109624;1257;49886;-61
2023/03/14 00:03:07;;;;;;;;;18.00;15.00;22.80;29.70;;;;;;109649;1255;50438;-61
2023/03/14 00:05:33;;;;;;;;;17.50;14.00;22.80;29.70;;;;;;109611;1258;45929;-61
2023/03/14 00:08:00;;;;;;;;;15.50;14.50;22.80;29.70;;;;;;109601;1255;55278;-60
2023/03/14 00:10:26;;;;;;;;;17.50;16.00;22.80;29.80;;;;;;109634;1255;53699;-61
2023/03/14 00:12:52;;;;;;;;;20.00;16.00;22.70;29.60;;;;;;109745;1255;50359;-61
2023/03/14 00:15:18;;;;;;;;;22.00;15.00;22.70;29.60;;;;;;109573;1255;49883;-61
2023/03/14 00:17:45;;;;;;;;;19.00;15.67;22.70;29.60;;;;;;109630;1255;46075;-61
2023/03/14 00:20:12;;;;;;;;;18.00;16.00;22.70;29.60;;;;;;109590;1255;56568;-62
2023/03/14 00:22:39;;;;;;;;;17.00;15.00;22.60;29.60;;;;;;109687;1260;54534;-62
2023/03/14 00:25:07;;;;;;;;;19.00;14.50;22.60;29.60;;;;;;109616;1259;50243;-62
2023/03/14 00:27:34;;;;;;;;;17.33;15.00;22.60;29.60;;;;;;109680;1264;50487;-62
2023/03/14 00:30:01;;;;;;;;;16.50;14.00;22.60;29.60;;;;;;109727;1260;45319;-62
2023/03/14 00:32:27;;;;;;;;;19.00;17.00;22.60;29.70;;;;;;109824;1256;56548;-61
2023/03/14 00:34:55;;;;;;;;;19.00;17.00;22.60;29.70;;;;;;109767;1259;54049;-62
2023/03/14 00:37:21;;;;;;;;;16.67;15.33;22.60;29.60;;;;;;109801;1261;50095;-64
2023/03/14 00:39:47;;;;;;;;;;;22.50;29.60;;;;;;109914;1260;49688;-64
2023/03/14 00:42:14;;;;;;;;;20.25;15.50;22.50;29.60;;;;;;109832;1259;45438;-61
2023/03/14 00:44:40;;;;;;;;;19.00;18.00;22.50;29.60;;;;;;109809;1260;55753;-61
2023/03/14 00:47:06;;;;;;;;;16.00;14.00;22.50;29.60;;;;;;109796;1260;54979;-61
2023/03/14 00:49:33;;;;;;;;;16.33;14.67;22.50;29.60;;;;;;109852;1255;49780;-61
2023/03/14 00:51:59;;;;;;;;;19.00;17.50;22.40;29.60;;;;;;109692;1256;50607;-61
2023/03/14 00:54:25;;;;;;;;;18.50;15.50;22.40;29.60;;;;;;109768;1260;45933;-61
2023/03/14 00:56:52;;;;;;;;;15.00;13.00;22.40;29.60;;;;;;109660;1256;56748;-63
2023/03/14 00:59:18;;;;;;;;;16.00;15.00;22.40;29.60;;;;;;109741;1259;54964;-63
2023/03/14 01:01:44;;;;;;;;;21.00;15.00;22.40;29.60;;;;;;109675;1257;50534;-61
2023/03/14 01:04:10;;;;;;;;;19.00;17.00;22.30;29.60;;;;;;109673;1257;49508;-61
2023/03/14 01:06:37;;;;;;;;;17.50;14.50;22.30;29.60;;;;;;109580;1260;45833;-60
2023/03/14 01:09:03;;;;;;;;;14.50;13.00;22.30;29.60;;;;;;109621;1255;55542;-61
2023/03/14 01:11:34;;;;;;;;;18.00;16.00;22.30;29.60;;;;;;109656;1257;53574;-61
2023/03/14 01:14:01;;;;;;;;;19.00;17.00;22.30;29.60;;;;;;109637;1260;49419;-61
2023/03/14 01:16:28;;;;;;;;;;;22.30;29.60;;;;;;109687;1257;49863;-61
2023/03/14 01:18:55;;;;;;;;;20.00;16.00;22.30;29.60;;;;;;109675;1257;45745;-62
2023/03/14 01:21:21;;;;;;;;;17.00;13.50;22.20;29.60;;;;;;109664;1255;56442;-62
2023/03/14 01:23:48;;;;;;;;;16.75;15.50;22.20;29.60;;;;;;109640;1260;54049;-63
2023/03/14 01:26:19;;;;;;;;;18.00;16.50;22.20;29.60;;;;;;109601;1261;49652;-62
2023/03/14 01:28:47;;;;;;;;;19.00;16.00;22.20;29.60;;;;;;109688;1260;49501;-61
2023/03/14 01:31:14;;;;;;;;;19.50;16.00;22.20;29.60;;;;;;109675;1256;45984;-60
2023/03/14 01:33:41;;;;;;;;;21.00;19.00;22.20;29.60;;;;;;109755;1260;56442;-60
2023/03/14 01:36:09;;;;;;;;;17.00;16.00;22.20;29.60;;;;;;109680;1254;54193;-60
2023/03/14 01:38:37;;;;;;;;;20.00;17.50;22.20;29.60;;;;;;109695;1259;49490;-61
2023/03/14 01:41:04;;;;;;;;;14.00;13.00;22.10;29.50;;;;;;109713;1255;49950;-61
2023/03/14 01:43:31;;;;;;;;;21.50;18.00;22.10;29.50;;;;;;109639;1255;46148;-61
2023/03/14 01:46:21;;;;;;;;;14.50;13.50;22.10;29.50;;;;;;109715;1255;55851;-62
2023/03/14 01:49:02;;;;;;;;;20.00;17.00;22.10;29.60;;;;;;109582;1255;53765;-60
2023/03/14 01:51:34;;;;;;;;;20.50;16.00;22.10;29.70;;;;;;109526;1259;49481;-60
2023/03/14 01:54:25;;;;;;;;;19.00;17.50;22.10;29.60;;;;;;109579;1260;49421;-60
2023/03/14 01:56:56;;;;;;;;;19.00;16.00;22.10;29.60;;;;;;109648;1255;45926;-60
2023/03/14 01:59:24;;;;;;;;;18.00;17.00;22.10;29.60;;;;;;109599;1259;57174;-59
2023/03/14 02:01:51;;;;;;;;;21.00;20.00;22.10;29.60;;;;;;109648;1255;54012;-61
2023/03/14 02:04:18;;;;;;;;;21.00;16.00;22.00;29.50;;;;;;109552;1259;50486;-61
2023/03/14 02:06:51;;;;;;;;;18.00;17.00;22.00;29.50;;;;;;109590;1261;49489;-59
2023/03/14 02:09:19;;;;;;;;;17.67;16.67;22.00;29.50;;;;;;109647;1260;46788;-60
2023/03/14 02:11:45;;;;;;;;;19.50;16.50;22.00;29.60;;;;;;109711;1260;56283;-60
2023/03/14 02:14:20;;;;;;;;;19.00;16.00;21.90;29.50;;;;;;109683;1255;54865;-60
2023/03/14 02:16:47;;;;;;;;;19.00;17.00;21.90;29.70;;;;;;109554;1263;50203;-61
2023/03/14 02:19:15;;;;;;;;;18.00;16.00;21.90;29.80;;;;;;109548;1261;49456;-61
2023/03/14 02:21:56;;;;;;;;;15.50;14.50;21.90;29.60;;;;;;109776;1255;45249;-61
2023/03/14 02:24:30;;;;;;;;;17.00;15.00;21.90;29.50;;;;;;109595;1256;57995;-61
2023/03/14 02:27:19;;;;;;;;;15.00;12.00;21.90;29.50;;;;;;109597;1257;54282;-62
2023/03/14 02:29:58;;;;;;;;;18.00;17.00;21.90;29.50;;;;;;109589;1255;49164;-61
2023/03/14 02:32:28;;;;;;;;;18.50;16.00;21.90;29.60;;;;;;109642;1257;49088;-62
2023/03/14 02:34:57;;;;;;;;;19.00;17.00;21.90;29.60;;;;;;109661;1259;45997;-61
2023/03/14 02:37:30;;;;;;;;;16.67;14.67;21.80;29.40;;;;;;109532;1255;56132;-62
2023/03/14 02:39:56;;;;;;;;;17.50;15.00;21.80;29.40;;;;;;109575;1255;54519;-61
2023/03/14 02:42:22;;;;;;;;;20.00;17.00;21.80;29.50;;;;;;109644;1255;49822;-61
2023/03/14 02:44:51;;;;;;;;;18.00;15.00;21.80;29.50;;;;;;109585;1255;49245;-61
2023/03/14 02:47:20;;;;;;;;;20.00;18.00;21.80;29.60;;;;;;109642;1260;45505;-61
2023/03/14 02:49:46;;;;;;;;;18.50;16.00;21.80;29.50;;;;;;109604;1255;55028;-61
2023/03/14 02:52:13;;;;;;;;;18.00;16.00;21.80;29.70;;;;;;109648;1259;54230;-61
2023/03/14 02:54:39;;;;;;;;;18.00;15.50;21.70;29.60;;;;;;109611;1260;50741;-60
2023/03/14 02:57:05;;;;;;;;;18.00;16.00;21.70;29.40;;;;;;109628;1260;49800;-59
2023/03/14 02:59:31;;;;;;;;;20.50;16.50;21.70;29.60;;;;;;109609;1260;45546;-60
2023/03/14 03:01:59;;;;;;;;;19.00;16.50;21.70;29.30;;;;;;109734;1260;56024;-61
2023/03/14 03:04:25;;;;;;;;;18.00;15.00;21.70;29.50;;;;;;109593;1255;54395;-61
2023/03/14 03:06:52;;;;;;;;;19.00;16.00;21.70;29.50;;;;;;109633;1260;49637;-61
2023/03/14 03:09:18;;;;;;;;;18.00;15.00;21.60;29.40;;;;;;109615;1259;48877;-62
2023/03/14 03:11:44;;;;;;;;;17.33;16.00;21.60;29.50;;;;;;109774;1255;45458;-62
2023/03/14 03:14:10;;;;;;;;;20.00;18.00;21.60;29.40;;;;;;109814;1260;56886;-61
2023/03/14 03:16:36;;;;;;;;;19.00;16.00;21.60;29.50;;;;;;109910;1255;54386;-61
2023/03/14 03:19:03;;;;;;;;;20.67;17.00;21.60;29.50;;;;;;109865;1259;49663;-61
2023/03/14 03:21:29;;;;;;;;;15.00;14.00;21.60;29.40;;;;;;109809;1255;50312;-61
2023/03/14 03:23:55;;;;;;;;;19.00;16.00;21.50;29.40;;;;;;109841;1259;45974;-61
2023/03/14 03:26:21;;;;;;;;;18.00;15.50;21.50;29.40;;;;;;109673;1257;56141;-61
2023/03/14 03:28:50;;;;;;;;;20.00;15.00;21.50;29.40;;;;;;109766;1259;54184;-60
2023/03/14 03:31:17;;;;;;;;;24.00;19.50;21.50;29.40;;;;;;109649;1255;50013;-61
2023/03/14 03:33:43;;;;;;;;;20.00;16.00;21.50;29.50;;;;;;109632;1259;49151;-60
2023/03/14 03:36:10;;;;;;;;;16.00;15.00;21.50;29.40;;;;;;109650;1255;45768;-61
2023/03/14 03:38:36;;;;;;;;;17.00;14.00;21.50;29.50;;;;;;109635;1255;55814;-61
2023/03/14 03:41:05;;;;;;;;;22.00;17.00;21.50;29.90;;;;;;109623;1260;54467;-61
2023/03/14 03:43:31;;;;;;;;;;;21.50;29.50;;;;;;109670;1255;49760;-61
2023/03/14 03:45:58;;;;;;;;;17.67;15.33;21.40;29.10;;;;;;109687;1255;49469;-61
2023/03/14 03:48:24;;;;;;;;;19.00;16.00;21.40;29.50;;;;;;109602;1255;45892;-61
2023/03/14 03:50:50;;;;;;;;;16.50;15.00;21.40;29.40;;;;;;109603;1255;55755;-62
2023/03/14 03:53:16;;;;;;;;;16.50;15.00;21.40;29.40;;;;;;109693;1258;55071;-60
2023/03/14 03:55:43;;;;;;;;;18.00;16.00;21.40;29.40;;;;;;109614;1259;50325;-60
2023/03/14 03:58:09;;;;;;;;;18.00;15.50;21.40;29.40;;;;;;109590;1257;49499;-60
2023/03/14 04:00:35;;;;;;;;;18.00;17.00;21.40;29.40;;;;;;109612;1255;45861;-60
2023/03/14 04:03:01;;;;;;;;;18.67;17.00;21.30;29.40;;;;;;109680;1255;56509;-60
2023/03/14 04:05:28;;;;;;;;;20.00;14.50;21.30;29.50;;;;;;109624;1260;53956;-60
2023/03/14 04:07:54;;;;;;;;;23.00;19.00;21.30;29.40;;;;;;109681;1255;49926;-60
2023/03/14 04:10:20;;;;;;;;;19.00;17.00;21.30;29.50;;;;;;109662;1255;50077;-61
2023/03/14 04:12:46;;;;;;;;;18.00;16.00;21.30;29.40;;;;;;109766;1257;45829;-61
2023/03/14 04:15:13;;;;;;;;;18.67;15.67;21.30;29.40;;;;;;109714;1257;56094;-61
2023/03/14 04:17:39;;;;;;;;;19.00;17.00;21.30;29.40;;;;;;109658;1255;54126;-61
2023/03/14 04:20:10;;;;;;;;;17.00;14.75;21.20;29.30;;;;;;109646;1260;49572;-61
2023/03/14 04:22:38;;;;;;;;;16.67;15.00;21.20;29.30;;;;;;109574;1260;49814;-61
2023/03/14 04:25:06;;;;;;;;;19.00;16.00;21.20;29.40;;;;;;109748;1259;45893;-60
2023/03/14 04:27:32;;;;;;;;;22.00;17.00;21.20;29.50;;;;;;109700;1255;55140;-61
2023/03/14 04:29:58;;;;;;;;;16.67;15.67;21.20;29.40;;;;;;109747;1257;53474;-62
2023/03/14 04:32:25;;;;;;;;;17.00;15.00;21.20;29.50;;;;;;109572;1261;49843;-61
2023/03/14 04:34:51;;;;;;;;;19.00;17.00;21.20;29.40;;;;;;109637;1259;49032;-61
2023/03/14 04:37:17;;;;;;;;;17.00;16.00;21.20;29.40;;;;;;109746;1256;45280;-61
2023/03/14 04:39:43;;;;;;;;;17.50;16.00;21.10;29.30;;;;;;109623;1260;56665;-61
2023/03/14 04:42:10;;;;;;;;;17.00;15.00;21.10;29.40;;;;;;109560;1255;54306;-61
2023/03/14 04:44:36;;;;;;;;;17.00;15.50;21.10;29.40;;;;;;109612;1255;49141;-62
2023/03/14 04:47:02;;;;;;;;;22.50;18.50;21.10;29.40;;;;;;109603;1255;50618;-61
2023/03/14 04:49:28;;;;;;;;;18.50;16.50;21.10;29.40;;;;;;109895;1255;45241;-62
2023/03/14 04:51:54;;;;;;;;;19.50;17.00;21.10;29.40;;;;;;109541;1260;56105;-61
2023/03/14 04:54:21;;;;;;;;;17.00;16.00;21.00;29.40;;;;;;109736;1260;53610;-61
2023/03/14 04:56:47;;;;;;;;;19.50;16.00;21.10;29.40;;;;;;109653;1255;50178;-63
2023/03/14 04:59:13;;;;;;;;;20.00;17.00;21.00;29.40;;;;;;109561;1255;49763;-61
2023/03/14 05:01:40;;;;;;;;;18.50;15.50;21.00;29.40;;;;;;109486;1255;45902;-61
2023/03/14 05:04:07;;;;;;;;;18.50;15.50;21.00;29.40;;;;;;109804;1257;55276;-60
2023/03/14 05:06:33;;;;;;;;;18.50;16.50;21.00;29.40;;;;;;109693;1255;53473;-61
2023/03/14 05:08:59;;;;;;;;;18.00;16.67;21.00;29.60;;;;;;109594;1257;50486;-62
2023/03/14 05:11:26;;;;;;;;;20.50;17.00;21.00;29.40;;;;;;109451;1257;49605;-63
2023/03/14 05:13:52;;;;;;;;;18.50;16.50;21.00;29.40;;;;;;109591;1260;46094;-62
2023/03/14 05:16:19;;;;;;;;;22.00;20.00;21.00;29.50;;;;;;109661;1255;56307;-64
2023/03/14 05:18:45;;;;;;;;;18.00;16.00;21.00;29.40;;;;;;109573;1257;54295;-62
2023/03/14 05:21:11;;;;;;;;;19.33;16.00;21.00;29.40;;;;;;109429;1255;49482;-60
2023/03/14 05:23:38;;;;;;;;;21.50;17.00;20.90;29.60;;;;;;109626;1255;50322;-60
2023/03/14 05:26:05;;;;;;;;;17.00;16.00;20.90;29.40;;;;;;109593;1259;45357;-61
2023/03/14 05:28:31;;;;;;;;;20.50;17.00;20.90;29.40;;;;;;109632;1260;55610;-60
2023/03/14 05:30:57;;;;;;;;;17.00;15.00;20.90;29.60;;;;;;109582;1260;54141;-59
2023/03/14 05:33:23;;;;;;;;;25.00;21.00;20.90;29.40;;;;;;109522;1255;50735;-61
2023/03/14 05:35:50;;;;;;;;;45.00;32.00;20.90;30.00;;;;;;109682;1259;50349;-61
2023/03/14 05:38:16;;;;;;;;;51.00;37.00;20.90;33.70;;;;;;109754;1255;45771;-63
2023/03/14 05:40:42;;;;;;;;;48.50;37.00;20.90;34.60;;;;;;109881;1260;56895;-66
2023/03/14 05:43:08;;;;;;;;;49.33;38.67;21.00;35.00;;;;;;109418;1260;54170;-67
2023/03/14 05:45:35;;;;;;;;;57.00;42.00;21.00;35.60;;;;;;109971;1259;49994;-65
2023/03/14 05:48:01;;;;;;;;;50.00;38.50;21.00;35.70;;;;;;109877;1258;49527;-66
2023/03/14 05:50:27;;;;;;;;;56.00;40.00;21.10;35.70;;;;;;109736;1255;45914;-65
2023/03/14 05:52:53;;;;;;;;;53.50;36.00;21.10;36.20;;;;;;109747;1259;56128;-65
2023/03/14 05:55:20;;;;;;;;;57.00;39.00;21.10;36.10;;;;;;109784;1255;53734;-63
2023/03/14 05:57:46;;;;;;;;;50.00;37.00;21.20;36.40;;;;;;109849;1260;49831;-62
2023/03/14 06:00:13;;;;;;;;;44.00;34.00;21.20;36.40;;;;;;109631;1259;49082;-60
2023/03/14 06:02:39;;;;;;;;;;;21.20;36.10;;;;;;109618;1255;46892;-64
2023/03/14 06:05:06;;;;;;;;;49.50;35.50;21.20;36.60;;;;;;109628;1255;55563;-60
2023/03/14 06:07:32;;;;;;;;;46.00;34.00;21.30;36.80;;;;;;109648;1255;54100;-63
2023/03/14 06:09:59;;;;;;;;;44.00;33.00;21.30;36.70;;;;;;109625;1258;50453;-64
2023/03/14 06:12:25;;;;;;;;;46.00;32.00;21.30;36.50;;;;;;109793;1262;49101;-62
2023/03/14 06:14:51;;;;;;;;;39.00;32.00;21.30;36.50;;;;;;109625;1258;45965;-64
2023/03/14 06:17:17;;;;;;;;;50.00;38.00;21.40;36.60;;;;;;109608;1256;55666;-63
2023/03/14 06:19:43;;;;;;;;;47.00;33.00;21.40;36.60;;;;;;109576;1257;54800;-63
2023/03/14 06:22:10;;;;;;;;;41.00;30.00;21.40;36.50;;;;;;109621;1260;49976;-65
2023/03/14 06:24:36;;;;;;;;;41.00;29.00;21.40;36.30;;;;;;109635;1255;50117;-63
2023/03/14 06:27:03;;;;;;;;;48.00;31.50;21.50;36.20;;;;;;109647;1255;45330;-62
2023/03/14 06:29:29;;;;;;;;;44.50;33.00;21.50;36.30;;;;;;109609;1260;56210;-61
2023/03/14 06:31:56;;;;;;;;;40.00;31.00;21.60;36.30;;;;;;109709;1259;53713;-62
2023/03/14 06:34:22;;;;;;;;;41.00;31.00;21.60;36.20;;;;;;109588;1259;49674;-62
2023/03/14 06:36:48;;;;;;;;;44.00;31.50;21.60;36.00;;;;;;109608;1255;49558;-62
2023/03/14 06:39:15;;;;;;;;;40.00;29.00;21.70;36.00;;;;;;109674;1254;45300;-62
2023/03/14 06:41:41;;;;;;;;;40.00;30.00;21.70;35.90;;;;;;109780;1258;55209;-70
2023/03/14 06:44:07;;;;;;;;;36.50;30.00;21.80;35.90;;;;;;109762;1255;54188;-62
2023/03/14 06:46:33;;;;;;;;;42.50;32.50;21.80;35.60;;;;;;109642;1260;49612;-61
2023/03/14 06:49:00;;;;;;;;;35.00;30.00;21.90;35.40;;;;;;109642;1260;49013;-62
2023/03/14 06:51:26;;;;;;;;;29.50;26.00;21.90;35.60;;;;;;109713;1261;45743;-62
2023/03/14 06:53:52;;;;;;;;;38.00;28.00;21.90;35.10;;;;;;109532;1260;56235;-62
2023/03/14 06:56:18;;;;;;;;;39.50;29.50;21.90;34.90;;;;;;109645;1259;53772;-61
2023/03/14 06:58:44;;;;;;;;;31.00;26.00;21.90;34.70;;;;;;109626;1259;49700;-62
2023/03/14 07:01:24;;;;;;;;;33.00;28.00;21.90;34.60;;;;;;109638;1259;50857;-61
2023/03/14 07:03:50;;;;;;;;;40.00;31.33;22.00;34.50;;;;;;109656;1260;45480;-62
2023/03/14 07:06:16;;;;;;;;;40.00;29.50;22.00;34.30;;;;;;109521;1255;161138;-66
2023/03/14 07:08:43;;;;;;;;;29.50;27.00;22.00;34.10;;;;;;109718;1257;54990;-63
2023/03/14 07:11:10;;;;;;;;;40.50;30.50;22.00;34.00;;;;;;109704;1255;49266;-61
2023/03/14 07:13:40;;;;;;;;;42.00;32.00;22.00;33.90;;;;;;109561;1256;49957;-61
2023/03/14 07:16:07;;;;;;;;;38.00;33.00;22.00;34.20;;;;;;109582;1260;45493;-61
2023/03/14 07:18:33;;;;;;;;;;;22.00;33.70;;;;;;109685;1259;56032;-63
2023/03/14 07:21:00;;;;;;;;;38.00;31.00;22.10;33.80;;;;;;109634;1260;54337;-62
2023/03/14 07:23:26;;;;;;;;;32.00;29.00;22.10;33.80;;;;;;109605;1259;50101;-61
2023/03/14 07:25:53;;;;;;;;;42.00;30.00;22.10;33.80;;;;;;109599;1255;50307;-65
2023/03/14 07:28:20;;;;;;;;;27.00;26.00;22.10;33.80;;;;;;109580;1255;45882;-63
2023/03/14 07:30:47;;;;;;;;;29.50;28.50;22.10;34.00;;;;;;109632;1256;55338;-63
2023/03/14 07:33:13;;;;;;;;;35.00;31.00;22.20;33.90;;;;;;109676;1258;53471;-64
2023/03/14 07:35:40;;;;;;;;;34.00;31.00;22.20;34.20;;;;;;109596;1255;49054;-63
2023/03/14 07:38:06;;;;;;;;;31.50;27.50;22.20;34.10;;;;;;109596;1260;49687;-61
2023/03/14 07:40:32;;;;;;;;;31.50;28.50;22.20;33.80;;;;;;109590;1255;46164;-62
2023/03/14 07:42:58;;;;;;;;;30.00;28.00;22.20;34.30;;;;;;109639;1259;56749;-62
2023/03/14 07:45:25;;;;;;;;;29.00;28.00;22.30;33.60;;;;;;109673;1259;54176;-61
2023/03/14 07:47:51;;;;;;;;;31.67;29.00;22.30;33.40;;;;;;109587;1259;50422;-61
2023/03/14 07:50:17;;;;;;;;;31.00;28.00;22.30;33.20;;;;;;109632;1260;48885;-62
2023/03/14 07:52:44;;;;;;;;;33.00;29.00;22.30;33.10;;;;;;109634;1260;45931;-62
2023/03/14 07:55:10;;;;;;;;;34.00;29.00;22.30;32.90;;;;;;109618;1255;56511;-62
2023/03/14 07:57:36;;;;;;;;;38.00;32.00;22.30;32.80;;;;;;109598;1260;53828;-61
2023/03/14 08:00:05;;;;;;;;;37.00;30.00;22.30;32.80;;;;;;109660;1255;50113;-61
2023/03/14 08:02:31;;;;;;;;;35.00;29.50;22.40;32.90;;;;;;109662;1260;48964;-59
2023/03/14 08:04:57;;;;;;;;;37.50;32.50;22.40;32.70;;;;;;109643;1255;46074;-61
2023/03/14 08:07:24;;;;;;;;;30.00;25.00;22.40;33.10;;;;;;109724;1259;56274;-59
2023/03/14 08:09:50;;;;;;;;;28.50;26.00;22.40;32.80;;;;;;109631;1260;53897;-60
2023/03/14 08:12:16;;;;;;;;;31.50;26.00;22.40;32.30;;;;;;109705;1258;49915;-59
2023/03/14 08:14:42;;;;;;;;;30.00;24.00;22.40;32.70;;;;;;109649;1255;49126;-59
2023/03/14 08:17:09;;;;;;;;;29.00;25.00;22.50;32.80;;;;;;109640;1259;45342;-59
2023/03/14 08:19:35;;;;;;;;;26.00;22.00;22.50;32.70;;;;;;109636;1259;55439;-58
2023/03/14 08:22:01;;;;;;;;;34.00;28.00;22.60;32.70;;;;;;109631;1256;54316;-60
2023/03/14 08:24:27;;;;;;;;;29.00;27.00;22.60;32.70;;;;;;109822;1255;49162;-58
2023/03/14 08:26:53;;;;;;;;;31.00;23.50;22.60;32.60;;;;;;109738;1255;49521;-59
2023/03/14 08:29:20;;;;;;;;;28.00;25.00;22.60;32.50;;;;;;109662;1259;45955;-60
2023/03/14 08:31:46;;;;;;;;;28.50;25.00;22.60;32.50;;;;;;109641;1260;56307;-60
2023/03/14 08:34:12;;;;;;;;;27.00;23.00;22.70;32.50;;;;;;109732;1259;54399;-60
2023/03/14 08:36:38;;;;;;;;;30.50;24.50;22.70;32.50;;;;;;109811;1260;49061;-60
2023/03/14 08:39:07;;;;;;;;;30.00;26.00;22.70;32.90;;;;;;109785;1255;49166;-59
2023/03/14 08:41:39;;;;;;;;;29.00;26.00;22.70;32.40;;;;;;109787;1260;46486;-59
2023/03/14 08:44:07;;;;;;;;;31.00;25.00;22.70;32.30;;;;;;109745;1260;55298;-58
2023/03/14 08:46:33;;;;;;;;;26.00;23.00;22.70;31.90;;;;;;109768;1261;54169;-58
2023/03/14 08:49:00;;;;;;;;;30.00;25.00;22.70;32.20;;;;;;109629;1261;49576;-60
2023/03/14 08:51:26;;;;;;;;;26.00;24.67;22.70;32.20;;;;;;109684;1260;49986;-59
2023/03/14 08:53:52;;;;;;;;;26.00;23.00;22.70;32.20;;;;;;109601;1256;46389;-59
2023/03/14 08:56:19;;;;;;;;;26.00;25.00;22.70;32.10;;;;;;109603;1257;56053;-58
2023/03/14 08:58:45;;;;;;;;;24.50;21.00;22.60;32.10;;;;;;109595;1260;53990;-59
2023/03/14 09:01:11;;;;;;;;;27.33;24.00;22.60;32.30;;;;;;109592;1259;49243;-59
2023/03/14 09:03:38;;;;;;;;;26.25;23.25;22.60;32.20;;;;;;109571;1257;49567;-59
2023/03/14 09:06:06;;;;;;;;;23.50;21.00;22.60;32.30;;;;;;109607;1255;45553;-59
2023/03/14 09:08:33;;;;;;;;;32.50;23.00;22.60;32.10;;;;;;109619;1260;55320;-59
2023/03/14 09:10:59;;;;;;;;;24.50;21.00;22.60;32.20;;;;;;109630;1255;54517;-59
2023/03/14 09:13:26;;;;;;;;;23.00;20.50;22.60;32.20;;;;;;109654;1259;50265;-60
2023/03/14 09:15:53;;;;;;;;;27.00;23.00;22.60;32.20;;;;;;109518;1257;49914;-59
2023/03/14 09:18:19;;;;;;;;;24.00;23.00;22.60;32.20;;;;;;109754;1255;45241;-59
2023/03/14 09:20:46;;;;;;;;;24.50;22.00;22.60;32.20;;;;;;109589;1255;56131;-59
2023/03/14 09:23:12;;;;;;;;;29.50;24.00;22.60;32.40;;;;;;109626;1257;54290;-59
2023/03/14 09:25:38;;;;;;;;;26.00;20.00;22.50;32.10;;;;;;109573;1260;49777;-59
2023/03/14 09:28:05;;;;;;;;;27.50;24.50;22.50;32.00;;;;;;109607;1260;49772;-60
2023/03/14 09:30:32;;;;;;;;;21.00;20.00;22.50;32.20;;;;;;109621;1260;46192;-59
2023/03/14 09:32:58;;;;;;;;;29.00;23.00;22.50;32.00;;;;;;109702;1255;55565;-59
2023/03/14 09:35:25;;;;;;;;;20.00;18.50;22.50;32.10;;;;;;109601;1260;53967;-59
2023/03/14 09:37:52;;;;;;;;;24.00;20.00;22.50;32.20;;;;;;109585;1256;49243;-60
2023/03/14 09:40:20;;;;;;;;;23.00;21.00;22.50;32.00;;;;;;109583;1255;49491;-59
2023/03/14 09:42:54;;;;;;;;;25.00;22.50;22.50;32.00;;;;;;109648;1259;45947;-59
2023/03/14 09:45:31;;;;;;;;;23.50;21.00;22.50;32.10;;;;;;109549;1261;55611;-59
2023/03/14 09:47:58;;;;;;;;;28.00;23.00;22.50;32.00;;;;;;109615;1260;53280;-59
2023/03/14 09:50:26;;;;;;;;;21.00;20.00;22.50;32.20;;;;;;109622;1257;49346;-59
2023/03/14 09:52:57;;;;;;;;;21.00;19.00;22.40;32.10;;;;;;109646;1260;48870;-59
2023/03/14 09:55:23;;;;;;;;;25.00;22.00;22.40;31.90;;;;;;109635;1259;46146;-58
2023/03/14 09:57:54;;;;;;;;;21.50;19.00;22.40;31.70;;;;;;109599;1256;55216;-59
2023/03/14 10:00:26;;;;;;;;;26.00;22.50;22.40;31.80;;;;;;109572;1259;54910;-59
2023/03/14 10:03:02;;;;;;;;;23.00;22.00;22.40;31.80;;;;;;109717;1260;51134;-59
2023/03/14 10:05:29;;;;;;;;;29.00;21.00;22.40;31.70;;;;;;109717;1260;49488;-61
2023/03/14 10:07:55;;;;;;;;;29.00;24.00;22.50;31.80;;;;;;109747;1260;46161;-60
2023/03/14 10:10:24;;;;;;;;;31.00;26.00;22.50;31.40;;;;;;109697;1257;56544;-61
2023/03/14 10:13:18;;;;;;;;;28.50;26.50;22.50;31.20;;;;;;109666;1260;54280;-62
2023/03/14 10:15:52;;;;;;;;;23.33;21.00;22.60;31.10;;;;;;109731;1260;49732;-61
2023/03/14 10:18:19;;;;;;;;;26.00;22.67;22.60;31.30;;;;;;109647;1255;49363;-61
2023/03/14 10:20:48;;;;;;;;;26.50;23.50;22.70;31.30;;;;;;109641;1260;45394;-62
2023/03/14 10:23:17;;;;;;;;;27.00;22.25;22.70;31.40;;;;;;109624;1259;55846;-62
2023/03/14 10:25:46;;;;;;;;;27.00;25.00;22.70;31.50;;;;;;109663;1255;54359;-61
2023/03/14 10:28:27;;;;;;;;;24.00;22.00;22.80;31.60;;;;;;109707;1260;49303;-60
2023/03/14 10:30:54;;;;;;;;;32.00;25.50;22.80;32.20;;;;;;109652;1260;50267;-61
2023/03/14 10:33:23;;;;;;;;;28.00;25.00;22.80;31.80;;;;;;109582;1260;46958;-62
2023/03/14 10:35:57;;;;;;;;;25.00;18.50;22.90;32.50;;;;;;109747;1260;56031;-62
2023/03/14 10:38:27;;;;;;;;;25.00;22.00;23.00;32.20;;;;;;109627;1257;53989;-62
2023/03/14 10:40:54;;;;;;;;;22.00;20.50;23.00;32.20;;;;;;109799;1258;50377;-62
2023/03/14 10:43:26;;;;;;;;;21.50;19.00;23.00;32.30;;;;;;109745;1258;49805;-62
2023/03/14 10:45:59;;;;;;;;;21.00;20.00;23.10;32.00;;;;;;109727;1260;46187;-62
2023/03/14 10:48:37;;;;;;;;;27.00;23.00;23.10;31.40;;;;;;109768;1255;56873;-61
2023/03/14 10:51:23;;;;;;;;;23.00;21.00;23.20;31.50;;;;;;109664;1260;53465;-59
2023/03/14 10:54:03;;;;;;;;;25.00;22.00;23.20;32.00;;;;;;109673;1255;50014;-60
2023/03/14 10:56:37;;;;;;;;;20.00;18.00;23.30;32.60;;;;;;109602;1259;49902;-59
2023/03/14 10:59:07;;;;;;;;;22.00;20.00;23.30;32.40;;;;;;109624;1260;46191;-61
2023/03/14 11:01:57;;;;;;;;;24.00;20.00;23.30;32.50;;;;;;109450;1255;56140;-60
2023/03/14 11:05:09;;;;;;;;;21.00;20.00;23.40;32.90;;;;;;109693;1255;54980;-60
2023/03/14 11:07:44;;;;;;;;;24.00;21.00;23.40;32.70;;;;;;109737;1255;49146;-61
2023/03/14 11:10:50;;;;;;;;;24.00;21.00;23.50;32.90;;;;;;109699;1255;49742;-62
2023/03/14 11:13:17;;;;;;;;;23.00;21.00;23.50;32.60;;;;;;109748;1258;46059;-60
2023/03/14 11:16:11;;;;;;;;;21.00;20.00;23.50;32.70;;;;;;109775;1255;56786;-59
2023/03/14 11:18:55;;;;;;;;;27.00;22.50;23.60;32.80;;;;;;109603;1257;53875;-60
2023/03/14 11:21:46;;;;;;;;;27.00;23.00;23.60;33.00;;;;;;109643;1257;49799;-60
2023/03/14 11:24:28;;;;;;;;;20.50;19.00;23.60;33.20;;;;;;109601;1260;50571;-60
2023/03/14 11:27:05;;;;;;;;;25.00;22.00;23.60;33.30;;;;;;109586;1260;45240;-60
2023/03/14 11:29:46;;;;;;;;;21.50;20.00;23.70;33.80;;;;;;109589;1260;56854;-60
2023/03/14 11:32:35;;;;;;;;;19.00;18.00;23.70;34.20;;;;;;109663;1260;54263;-60
2023/03/14 11:35:05;;;;;;;;;24.00;23.00;23.80;33.90;;;;;;109714;1258;50000;-60
2023/03/14 11:37:36;;;;;;;;;25.00;23.00;23.80;34.00;;;;;;109638;1260;49512;-61
2023/03/14 11:40:24;;;;;;;;;22.50;20.00;23.80;34.00;;;;;;109592;1260;46620;-60
2023/03/14 11:43:04;;;;;;;;;27.00;24.00;23.90;34.20;;;;;;109699;1255;55898;-61
2023/03/14 11:45:35;;;;;;;;;24.00;20.00;24.00;34.50;;;;;;109593;1260;54750;-61
2023/03/14 11:48:16;;;;;;;;;22.00;21.00;24.00;34.20;;;;;;109570;1259;49780;-60
2023/03/14 11:50:44;;;;;;;;;20.00;19.00;24.00;34.30;;;;;;109597;1257;48922;-61
2023/03/14 11:53:26;;;;;;;;;22.00;21.00;24.10;34.30;;;;;;109764;1257;46042;-61
2023/03/14 11:55:53;;;;;;;;;21.00;18.00;24.10;34.30;;;;;;109690;1255;56194;-59
2023/03/14 11:58:33;;;;;;;;;24.00;21.00;24.10;34.20;;;;;;109535;1257;53767;-61
2023/03/14 12:01:06;;;;;;;;;23.00;21.00;24.20;34.30;;;;;;109678;1255;49530;-60
2023/03/14 12:03:42;;;;;;;;;20.00;17.00;24.20;34.50;;;;;;109518;1261;49606;-61
2023/03/14 12:06:17;;;;;;;;;21.50;19.00;24.20;34.40;;;;;;109645;1261;45527;-60
2023/03/14 12:08:47;;;;;;;;;22.00;19.00;24.20;34.40;;;;;;109595;1260;56264;-61
2023/03/14 12:11:31;;;;;;;;;20.00;18.00;24.20;34.40;;;;;;109576;1257;54031;-61
2023/03/14 12:13:58;;;;;;;;;19.33;18.00;24.20;34.50;;;;;;109633;1260;49760;-61
2023/03/14 12:16:24;;;;;;;;;21.50;20.00;24.20;34.70;;;;;;109618;1259;50468;-61
2023/03/14 12:18:52;;;;;;;;;22.50;21.50;24.20;34.90;;;;;;109725;1257;45840;-60
2023/03/14 12:21:19;;;;;;;;;23.00;20.00;24.20;35.10;;;;;;109687;1258;55814;-61
2023/03/14 12:23:52;;;;;;;;;23.00;20.00;24.20;35.20;;;;;;109653;1255;53473;-60
2023/03/14 12:26:23;;;;;;;;;21.00;19.33;24.20;35.40;;;;;;109682;1256;49809;-59